sensor_id;sensor_type;location;lat;lon;timestamp;P1;durP1;ratioP1;P2;durP2;ratioP2
25609;SDS011;13479;49.044;8.716;2024-01-30T05:02:47;15.13;;;7.67;;
25609;SDS011;13479;49.044;8.716;2024-01-30T05:05:12;15.77;;;7.23;;
25609;SDS011;13479;49.044;8.716;2024-01-30T05:07:38;12.50;;;6.87;;
25609;SDS011;13479;49.044;8.716;2024-01-30T05:10:06;19.07;;;7.73;;
25609;SDS011;13479;49.044;8.716;2024-01-30T05:12:31;13.80;;;7.27;;
25609;SDS011;13479;49.044;8.716;2024-01-30T05:14:57;14.33;;;7.50;;
25609;SDS011;13479;49.044;8.716;2024-01-30T05:17:22;13.30;;;6.80;;
25609;SDS011;13479;49.044;8.716;2024-01-30T05:19:47;16.10;;;7.97;;
25609;SDS011;13479;49.044;8.716;2024-01-30T05:22:12;16.03;;;7.53;;
25609;SDS011;13479;49.044;8.716;2024-01-30T05:24:40;16.17;;;7.00;;
25609;SDS011;13479;49.044;8.716;2024-01-30T05:27:08;13.23;;;6.90;;
25609;SDS011;13479;49.044;8.716;2024-01-30T05:29:34;13.40;;;6.87;;
25609;SDS011;13479;49.044;8.716;2024-01-30T05:31:59;20.87;;;9.47;;
25609;SDS011;13479;49.044;8.716;2024-01-30T05:34:24;26.30;;;12.00;;
25609;SDS011;13479;49.044;8.716;2024-01-30T05:36:50;29.63;;;13.37;;
25609;SDS011;13479;49.044;8.716;2024-01-30T05:39:15;28.13;;;11.90;;
25609;SDS011;13479;49.044;8.716;2024-01-30T05:41:40;22.93;;;10.00;;
25609;SDS011;13479;49.044;8.716;2024-01-30T05:44:06;22.90;;;11.80;;
25609;SDS011;13479;49.044;8.716;2024-01-30T05:46:31;22.30;;;10.47;;
25609;SDS011;13479;49.044;8.716;2024-01-30T05:48:56;23.47;;;11.07;;
25609;SDS011;13479;49.044;8.716;2024-01-30T05:51:21;24.17;;;11.53;;
25609;SDS011;13479;49.044;8.716;2024-01-30T05:53:47;12.83;;;7.20;;
25609;SDS011;13479;49.044;8.716;2024-01-30T05:56:12;15.23;;;7.17;;
25609;SDS011;13479;49.044;8.716;2024-01-30T05:58:37;15.07;;;7.50;;
25609;SDS011;13479;49.044;8.716;2024-01-30T06:01:06;20.97;;;7.30;;
25609;SDS011;13479;49.044;8.716;2024-01-30T06:03:33;17.30;;;7.80;;
25609;SDS011;13479;49.044;8.716;2024-01-30T06:05:58;14.47;;;6.70;;
25609;SDS011;13479;49.044;8.716;2024-01-30T06:08:23;19.37;;;7.70;;
25609;SDS011;13479;49.044;8.716;2024-01-30T06:10:48;17.50;;;7.10;;
25609;SDS011;13479;49.044;8.716;2024-01-30T06:13:14;19.33;;;8.13;;
25609;SDS011;13479;49.044;8.716;2024-01-30T06:15:39;18.40;;;7.77;;
25609;SDS011;13479;49.044;8.716;2024-01-30T06:18:04;17.03;;;7.57;;
25609;SDS011;13479;49.044;8.716;2024-01-30T06:20:30;16.23;;;7.90;;
25609;SDS011;13479;49.044;8.716;2024-01-30T06:22:55;19.17;;;8.93;;
25609;SDS011;13479;49.044;8.716;2024-01-30T06:25:20;18.00;;;8.00;;
25609;SDS011;13479;49.044;8.716;2024-01-30T06:27:45;21.10;;;8.37;;
25609;SDS011;13479;49.044;8.716;2024-01-30T06:30:11;14.43;;;7.53;;
25609;SDS011;13479;49.044;8.716;2024-01-30T06:32:37;16.23;;;8.00;;
25609;SDS011;13479;49.044;8.716;2024-01-30T06:35:02;14.03;;;7.43;;
25609;SDS011;13479;49.044;8.716;2024-01-30T06:37:28;13.37;;;6.67;;
25609;SDS011;13479;49.044;8.716;2024-01-30T06:39:54;14.20;;;6.90;;
25609;SDS011;13479;49.044;8.716;2024-01-30T06:42:19;17.23;;;6.93;;
25609;SDS011;13479;49.044;8.716;2024-01-30T06:44:44;17.10;;;7.40;;
25609;SDS011;13479;49.044;8.716;2024-01-30T06:47:10;19.00;;;7.87;;
25609;SDS011;13479;49.044;8.716;2024-01-30T06:49:35;18.57;;;8.93;;
25609;SDS011;13479;49.044;8.716;2024-01-30T06:52:04;17.83;;;8.50;;
25609;SDS011;13479;49.044;8.716;2024-01-30T06:54:30;16.83;;;7.67;;
25609;SDS011;13479;49.044;8.716;2024-01-30T06:56:56;14.40;;;7.10;;
25609;SDS011;13479;49.044;8.716;2024-01-30T06:59:21;17.80;;;8.50;;
25609;SDS011;13479;49.044;8.716;2024-01-30T07:01:46;11.80;;;6.70;;
25609;SDS011;13479;49.044;8.716;2024-01-30T07:04:11;15.70;;;8.03;;
25609;SDS011;13479;49.044;8.716;2024-01-30T07:06:37;12.17;;;6.50;;
25609;SDS011;13479;49.044;8.716;2024-01-30T07:09:02;16.67;;;7.60;;
25609;SDS011;13479;49.044;8.716;2024-01-30T07:11:28;18.67;;;7.90;;
25609;SDS011;13479;49.044;8.716;2024-01-30T07:13:53;15.30;;;8.07;;
25609;SDS011;13479;49.044;8.716;2024-01-30T07:16:19;18.20;;;7.93;;
25609;SDS011;13479;49.044;8.716;2024-01-30T07:18:44;16.27;;;7.70;;
25609;SDS011;13479;49.044;8.716;2024-01-30T07:21:10;14.43;;;8.03;;
25609;SDS011;13479;49.044;8.716;2024-01-30T07:23:35;17.13;;;8.20;;
25609;SDS011;13479;49.044;8.716;2024-01-30T07:26:03;13.00;;;6.40;;
25609;SDS011;13479;49.044;8.716;2024-01-30T07:28:29;11.13;;;5.90;;
25609;SDS011;13479;49.044;8.716;2024-01-30T07:30:55;17.73;;;7.10;;
25609;SDS011;13479;49.044;8.716;2024-01-30T07:33:20;18.97;;;7.63;;
25609;SDS011;13479;49.044;8.716;2024-01-30T07:35:46;14.10;;;7.07;;
25609;SDS011;13479;49.044;8.716;2024-01-30T07:38:11;17.67;;;7.77;;
25609;SDS011;13479;49.044;8.716;2024-01-30T07:40:37;13.37;;;6.77;;
25609;SDS011;13479;49.044;8.716;2024-01-30T07:43:02;16.13;;;7.47;;
25609;SDS011;13479;49.044;8.716;2024-01-30T07:45:28;17.70;;;8.53;;
25609;SDS011;13479;49.044;8.716;2024-01-30T07:47:57;16.70;;;7.80;;
25609;SDS011;13479;49.044;8.716;2024-01-30T07:50:23;15.90;;;7.77;;
25609;SDS011;13479;49.044;8.716;2024-01-30T07:52:48;20.77;;;8.57;;
25609;SDS011;13479;49.044;8.716;2024-01-30T07:55:16;19.23;;;8.47;;
25609;SDS011;13479;49.044;8.716;2024-01-30T07:57:41;17.40;;;8.83;;
25609;SDS011;13479;49.044;8.716;2024-01-30T08:00:07;20.17;;;8.60;;
25609;SDS011;13479;49.044;8.716;2024-01-30T08:02:33;17.47;;;7.90;;
25609;SDS011;13479;49.044;8.716;2024-01-30T08:04:58;15.17;;;6.70;;
25609;SDS011;13479;49.044;8.716;2024-01-30T08:07:24;19.80;;;8.20;;
25609;SDS011;13479;49.044;8.716;2024-01-30T08:09:49;19.87;;;8.57;;
25609;SDS011;13479;49.044;8.716;2024-01-30T08:12:15;17.83;;;7.78;;
25609;SDS011;13479;49.044;8.716;2024-01-30T08:14:40;15.32;;;7.90;;
25609;SDS011;13479;49.044;8.716;2024-01-30T08:17:06;15.52;;;7.18;;
25609;SDS011;13479;49.044;8.716;2024-01-30T08:19:32;13.57;;;6.82;;
25609;SDS011;13479;49.044;8.716;2024-01-30T08:21:57;13.85;;;7.00;;
25609;SDS011;13479;49.044;8.716;2024-01-30T08:24:23;15.80;;;7.30;;
25609;SDS011;13479;49.044;8.716;2024-01-30T08:26:48;11.43;;;6.75;;
25609;SDS011;13479;49.044;8.716;2024-01-30T08:29:13;15.98;;;7.93;;
25609;SDS011;13479;49.044;8.716;2024-01-30T08:31:39;15.18;;;7.45;;
25609;SDS011;13479;49.044;8.716;2024-01-30T08:34:04;14.82;;;7.13;;
25609;SDS011;13479;49.044;8.716;2024-01-30T08:36:29;13.23;;;7.25;;
25609;SDS011;13479;49.044;8.716;2024-01-30T08:38:55;12.45;;;6.72;;
25609;SDS011;13479;49.044;8.716;2024-01-30T08:41:20;17.77;;;8.52;;
25609;SDS011;13479;49.044;8.716;2024-01-30T08:43:45;14.68;;;7.55;;
25609;SDS011;13479;49.044;8.716;2024-01-30T08:46:11;13.20;;;7.55;;
25609;SDS011;13479;49.044;8.716;2024-01-30T08:48:36;14.45;;;7.57;;
25609;SDS011;13479;49.044;8.716;2024-01-30T08:51:01;14.82;;;6.57;;
25609;SDS011;13479;49.044;8.716;2024-01-30T08:53:27;13.93;;;6.00;;
25609;SDS011;13479;49.044;8.716;2024-01-30T08:55:52;13.23;;;6.65;;
25609;SDS011;13479;49.044;8.716;2024-01-30T08:58:17;13.57;;;6.63;;
25609;SDS011;13479;49.044;8.716;2024-01-30T09:00:44;11.43;;;6.40;;
25609;SDS011;13479;49.044;8.716;2024-01-30T09:03:09;15.77;;;6.07;;
25609;SDS011;13479;49.044;8.716;2024-01-30T09:05:34;11.70;;;6.38;;
25609;SDS011;13479;49.044;8.716;2024-01-30T09:08:00;14.40;;;6.38;;
25609;SDS011;13479;49.044;8.716;2024-01-30T09:10:25;11.73;;;5.85;;
25609;SDS011;13479;49.044;8.716;2024-01-30T09:12:50;12.38;;;7.03;;
25609;SDS011;13479;49.044;8.716;2024-01-30T09:15:16;15.90;;;8.98;;
25609;SDS011;13479;49.044;8.716;2024-01-30T09:17:41;16.02;;;8.15;;
25609;SDS011;13479;49.044;8.716;2024-01-30T09:20:07;25.90;;;8.90;;
25609;SDS011;13479;49.044;8.716;2024-01-30T09:22:34;13.98;;;7.25;;
25609;SDS011;13479;49.044;8.716;2024-01-30T09:24:59;12.88;;;7.20;;
25609;SDS011;13479;49.044;8.716;2024-01-30T09:27:24;12.93;;;6.90;;
25609;SDS011;13479;49.044;8.716;2024-01-30T09:29:49;17.38;;;6.40;;
25609;SDS011;13479;49.044;8.716;2024-01-30T09:32:15;14.35;;;7.60;;
25609;SDS011;13479;49.044;8.716;2024-01-30T09:34:41;15.45;;;7.97;;
25609;SDS011;13479;49.044;8.716;2024-01-30T09:37:07;15.73;;;7.90;;
25609;SDS011;13479;49.044;8.716;2024-01-30T09:39:32;12.57;;;6.95;;
25609;SDS011;13479;49.044;8.716;2024-01-30T09:42:08;16.90;;;8.02;;
25609;SDS011;13479;49.044;8.716;2024-01-30T09:44:43;15.13;;;7.10;;
25609;SDS011;13479;49.044;8.716;2024-01-30T09:47:08;14.23;;;7.90;;
25609;SDS011;13479;49.044;8.716;2024-01-30T09:49:35;14.90;;;7.68;;
25609;SDS011;13479;49.044;8.716;2024-01-30T09:52:02;12.27;;;6.97;;
25609;SDS011;13479;49.044;8.716;2024-01-30T09:54:29;12.75;;;6.28;;
25609;SDS011;13479;49.044;8.716;2024-01-30T09:56:56;15.25;;;7.30;;
25609;SDS011;13479;49.044;8.716;2024-01-30T09:59:21;15.32;;;6.97;;
25609;SDS011;13479;49.044;8.716;2024-01-30T10:01:46;15.48;;;6.40;;
25609;SDS011;13479;49.044;8.716;2024-01-30T10:04:12;18.25;;;7.28;;
25609;SDS011;13479;49.044;8.716;2024-01-30T10:06:37;16.08;;;7.18;;
25609;SDS011;13479;49.044;8.716;2024-01-30T10:09:04;16.02;;;7.65;;
25609;SDS011;13479;49.044;8.716;2024-01-30T10:11:29;12.63;;;7.18;;
25609;SDS011;13479;49.044;8.716;2024-01-30T10:13:55;16.73;;;7.18;;
25609;SDS011;13479;49.044;8.716;2024-01-30T10:16:20;16.40;;;8.40;;
25609;SDS011;13479;49.044;8.716;2024-01-30T10:18:45;19.15;;;8.63;;
25609;SDS011;13479;49.044;8.716;2024-01-30T10:21:11;19.27;;;8.77;;
25609;SDS011;13479;49.044;8.716;2024-01-30T10:23:37;19.17;;;8.93;;
25609;SDS011;13479;49.044;8.716;2024-01-30T10:26:03;14.38;;;7.63;;
25609;SDS011;13479;49.044;8.716;2024-01-30T10:28:29;15.73;;;7.43;;
25609;SDS011;13479;49.044;8.716;2024-01-30T10:31:01;14.40;;;7.63;;
25609;SDS011;13479;49.044;8.716;2024-01-30T10:33:29;15.30;;;7.35;;
25609;SDS011;13479;49.044;8.716;2024-01-30T10:36:00;11.93;;;6.85;;
25609;SDS011;13479;49.044;8.716;2024-01-30T10:38:30;13.65;;;6.38;;
25609;SDS011;13479;49.044;8.716;2024-01-30T10:40:57;13.23;;;6.32;;
25609;SDS011;13479;49.044;8.716;2024-01-30T10:43:24;14.52;;;6.78;;
25609;SDS011;13479;49.044;8.716;2024-01-30T10:45:58;13.00;;;6.93;;
25609;SDS011;13479;49.044;8.716;2024-01-30T10:48:36;13.68;;;6.28;;
25609;SDS011;13479;49.044;8.716;2024-01-30T10:51:09;10.98;;;5.90;;
25609;SDS011;13479;49.044;8.716;2024-01-30T10:53:35;12.63;;;5.60;;
25609;SDS011;13479;49.044;8.716;2024-01-30T10:56:02;12.38;;;5.25;;
25609;SDS011;13479;49.044;8.716;2024-01-30T10:58:29;8.23;;;5.00;;
25609;SDS011;13479;49.044;8.716;2024-01-30T11:00:54;12.68;;;5.72;;
25609;SDS011;13479;49.044;8.716;2024-01-30T11:03:20;11.43;;;5.95;;
25609;SDS011;13479;49.044;8.716;2024-01-30T11:05:49;11.38;;;5.85;;
25609;SDS011;13479;49.044;8.716;2024-01-30T11:08:22;17.17;;;6.93;;
25609;SDS011;13479;49.044;8.716;2024-01-30T11:10:49;13.05;;;6.65;;
25609;SDS011;13479;49.044;8.716;2024-01-30T11:13:15;11.02;;;5.85;;
25609;SDS011;13479;49.044;8.716;2024-01-30T11:15:41;13.82;;;5.85;;
25609;SDS011;13479;49.044;8.716;2024-01-30T11:18:06;11.50;;;6.32;;
25609;SDS011;13479;49.044;8.716;2024-01-30T11:20:31;14.95;;;6.70;;
25609;SDS011;13479;49.044;8.716;2024-01-30T11:22:57;11.93;;;6.00;;
25609;SDS011;13479;49.044;8.716;2024-01-30T11:25:24;10.20;;;6.07;;
25609;SDS011;13479;49.044;8.716;2024-01-30T11:27:51;9.48;;;5.53;;
25609;SDS011;13479;49.044;8.716;2024-01-30T11:32:57;12.00;;;6.47;;
25609;SDS011;13479;49.044;8.716;2024-01-30T11:35:29;13.63;;;6.22;;
25609;SDS011;13479;49.044;8.716;2024-01-30T11:37:56;10.23;;;6.15;;
25609;SDS011;13479;49.044;8.716;2024-01-30T11:40:23;13.05;;;6.50;;
25609;SDS011;13479;49.044;8.716;2024-01-30T11:42:51;11.65;;;6.07;;
25609;SDS011;13479;49.044;8.716;2024-01-30T11:45:17;11.45;;;5.50;;
25609;SDS011;13479;49.044;8.716;2024-01-30T11:47:42;10.65;;;5.82;;
25609;SDS011;13479;49.044;8.716;2024-01-30T11:50:07;11.10;;;6.13;;
25609;SDS011;13479;49.044;8.716;2024-01-30T11:52:35;13.65;;;5.85;;
25609;SDS011;13479;49.044;8.716;2024-01-30T11:55:01;10.10;;;5.50;;
25609;SDS011;13479;49.044;8.716;2024-01-30T11:57:27;10.73;;;5.40;;
25609;SDS011;13479;49.044;8.716;2024-01-30T11:59:53;11.38;;;5.55;;
25609;SDS011;13479;49.044;8.716;2024-01-30T12:02:18;11.98;;;5.70;;
25609;SDS011;13479;49.044;8.716;2024-01-30T12:04:44;10.27;;;5.40;;
25609;SDS011;13479;49.044;8.716;2024-01-30T12:07:09;11.15;;;5.57;;
25609;SDS011;13479;49.044;8.716;2024-01-30T12:09:34;13.07;;;5.60;;
25609;SDS011;13479;49.044;8.716;2024-01-30T12:12:00;10.43;;;5.30;;
25609;SDS011;13479;49.044;8.716;2024-01-30T12:14:25;13.02;;;5.95;;
25609;SDS011;13479;49.044;8.716;2024-01-30T12:16:51;10.25;;;5.63;;
25609;SDS011;13479;49.044;8.716;2024-01-30T12:19:23;10.70;;;5.40;;
25609;SDS011;13479;49.044;8.716;2024-01-30T12:21:59;10.82;;;5.97;;
25609;SDS011;13479;49.044;8.716;2024-01-30T12:24:25;13.02;;;5.47;;
25609;SDS011;13479;49.044;8.716;2024-01-30T12:26:51;13.27;;;5.47;;
25609;SDS011;13479;49.044;8.716;2024-01-30T12:29:17;18.92;;;5.88;;
25609;SDS011;13479;49.044;8.716;2024-01-30T12:31:42;10.90;;;6.03;;
25609;SDS011;13479;49.044;8.716;2024-01-30T12:34:08;11.02;;;5.18;;
25609;SDS011;13479;49.044;8.716;2024-01-30T12:36:34;11.23;;;5.72;;
25609;SDS011;13479;49.044;8.716;2024-01-30T12:39:01;12.30;;;6.07;;
25609;SDS011;13479;49.044;8.716;2024-01-30T12:41:26;11.15;;;5.60;;
25609;SDS011;13479;49.044;8.716;2024-01-30T12:43:53;14.25;;;5.30;;
25609;SDS011;13479;49.044;8.716;2024-01-30T12:46:19;12.50;;;5.57;;
25609;SDS011;13479;49.044;8.716;2024-01-30T12:48:44;14.50;;;5.68;;
25609;SDS011;13479;49.044;8.716;2024-01-30T12:51:10;10.45;;;5.57;;
25609;SDS011;13479;49.044;8.716;2024-01-30T12:53:35;11.95;;;5.60;;
25609;SDS011;13479;49.044;8.716;2024-01-30T12:56:01;12.60;;;5.63;;
25609;SDS011;13479;49.044;8.716;2024-01-30T12:58:26;11.25;;;5.75;;
25609;SDS011;13479;49.044;8.716;2024-01-30T13:00:51;12.18;;;6.20;;
25609;SDS011;13479;49.044;8.716;2024-01-30T13:03:18;13.88;;;5.70;;
25609;SDS011;13479;49.044;8.716;2024-01-30T13:05:43;12.77;;;5.68;;
25609;SDS011;13479;49.044;8.716;2024-01-30T13:08:08;8.52;;;5.00;;
25609;SDS011;13479;49.044;8.716;2024-01-30T13:10:34;11.52;;;4.15;;
25609;SDS011;13479;49.044;8.716;2024-01-30T13:12:59;7.28;;;4.13;;
25609;SDS011;13479;49.044;8.716;2024-01-30T13:15:24;7.85;;;4.07;;
25609;SDS011;13479;49.044;8.716;2024-01-30T13:17:49;8.93;;;4.47;;
25609;SDS011;13479;49.044;8.716;2024-01-30T13:20:15;15.00;;;4.78;;
25609;SDS011;13479;49.044;8.716;2024-01-30T13:22:44;10.90;;;4.47;;
25609;SDS011;13479;49.044;8.716;2024-01-30T13:25:09;6.40;;;3.90;;
25609;SDS011;13479;49.044;8.716;2024-01-30T13:27:35;8.13;;;4.28;;
25609;SDS011;13479;49.044;8.716;2024-01-30T13:30:01;9.70;;;4.60;;
25609;SDS011;13479;49.044;8.716;2024-01-30T13:32:27;8.20;;;3.70;;
25609;SDS011;13479;49.044;8.716;2024-01-30T13:34:52;8.60;;;4.10;;
25609;SDS011;13479;49.044;8.716;2024-01-30T13:37:17;7.35;;;4.32;;
25609;SDS011;13479;49.044;8.716;2024-01-30T13:39:43;10.75;;;4.68;;
25609;SDS011;13479;49.044;8.716;2024-01-30T13:42:08;8.30;;;4.70;;
25609;SDS011;13479;49.044;8.716;2024-01-30T13:44:34;9.27;;;4.90;;
25609;SDS011;13479;49.044;8.716;2024-01-30T13:47:00;7.75;;;4.32;;
25609;SDS011;13479;49.044;8.716;2024-01-30T13:49:26;9.55;;;4.45;;
25609;SDS011;13479;49.044;8.716;2024-01-30T13:51:52;9.40;;;4.68;;
25609;SDS011;13479;49.044;8.716;2024-01-30T13:54:17;13.75;;;4.47;;
25609;SDS011;13479;49.044;8.716;2024-01-30T13:56:43;8.32;;;4.30;;
25609;SDS011;13479;49.044;8.716;2024-01-30T13:59:08;10.88;;;4.65;;
25609;SDS011;13479;49.044;8.716;2024-01-30T14:01:33;9.80;;;4.45;;
25609;SDS011;13479;49.044;8.716;2024-01-30T14:03:59;11.40;;;5.00;;
25609;SDS011;13479;49.044;8.716;2024-01-30T14:06:24;9.13;;;4.40;;
25609;SDS011;13479;49.044;8.716;2024-01-30T14:08:49;11.50;;;4.50;;
25609;SDS011;13479;49.044;8.716;2024-01-30T14:11:15;8.98;;;4.53;;
25609;SDS011;13479;49.044;8.716;2024-01-30T14:13:40;8.32;;;4.60;;
25609;SDS011;13479;49.044;8.716;2024-01-30T14:16:06;9.60;;;4.88;;
25609;SDS011;13479;49.044;8.716;2024-01-30T14:18:31;8.75;;;4.70;;
25609;SDS011;13479;49.044;8.716;2024-01-30T14:20:56;10.52;;;5.28;;
25609;SDS011;13479;49.044;8.716;2024-01-30T14:23:22;10.13;;;5.03;;
25609;SDS011;13479;49.044;8.716;2024-01-30T14:25:47;11.57;;;5.35;;
25609;SDS011;13479;49.044;8.716;2024-01-30T14:28:12;9.88;;;5.00;;
25609;SDS011;13479;49.044;8.716;2024-01-30T14:30:38;8.80;;;4.90;;
25609;SDS011;13479;49.044;8.716;2024-01-30T14:33:03;11.40;;;4.97;;
25609;SDS011;13479;49.044;8.716;2024-01-30T14:35:29;9.27;;;4.95;;
25609;SDS011;13479;49.044;8.716;2024-01-30T14:37:54;15.50;;;5.28;;
25609;SDS011;13479;49.044;8.716;2024-01-30T14:40:19;8.40;;;4.63;;
25609;SDS011;13479;49.044;8.716;2024-01-30T14:42:45;11.00;;;5.50;;
25609;SDS011;13479;49.044;8.716;2024-01-30T14:45:11;8.65;;;5.20;;
25609;SDS011;13479;49.044;8.716;2024-01-30T14:47:36;9.98;;;5.18;;
25609;SDS011;13479;49.044;8.716;2024-01-30T14:50:02;10.63;;;5.53;;
25609;SDS011;13479;49.044;8.716;2024-01-30T14:52:29;9.32;;;5.00;;
25609;SDS011;13479;49.044;8.716;2024-01-30T14:54:54;7.70;;;4.78;;
25609;SDS011;13479;49.044;8.716;2024-01-30T14:57:19;9.57;;;5.13;;
25609;SDS011;13479;49.044;8.716;2024-01-30T14:59:45;9.70;;;5.07;;
25609;SDS011;13479;49.044;8.716;2024-01-30T15:02:10;12.90;;;5.25;;
25609;SDS011;13479;49.044;8.716;2024-01-30T15:04:36;10.95;;;5.20;;
25609;SDS011;13479;49.044;8.716;2024-01-30T15:07:01;11.30;;;5.90;;
25609;SDS011;13479;49.044;8.716;2024-01-30T15:09:27;10.20;;;5.03;;
25609;SDS011;13479;49.044;8.716;2024-01-30T15:11:52;9.85;;;5.30;;
25609;SDS011;13479;49.044;8.716;2024-01-30T15:14:18;11.50;;;5.78;;
25609;SDS011;13479;49.044;8.716;2024-01-30T15:16:43;9.35;;;5.68;;
25609;SDS011;13479;49.044;8.716;2024-01-30T15:19:09;15.25;;;5.82;;
25609;SDS011;13479;49.044;8.716;2024-01-30T15:21:34;12.45;;;5.57;;
25609;SDS011;13479;49.044;8.716;2024-01-30T15:24:01;16.55;;;6.30;;
25609;SDS011;13479;49.044;8.716;2024-01-30T15:26:27;13.30;;;5.53;;
25609;SDS011;13479;49.044;8.716;2024-01-30T15:28:52;12.38;;;5.63;;
25609;SDS011;13479;49.044;8.716;2024-01-30T15:31:17;22.65;;;6.80;;
25609;SDS011;13479;49.044;8.716;2024-01-30T15:33:42;14.27;;;5.50;;
25609;SDS011;13479;49.044;8.716;2024-01-30T15:36:08;14.93;;;5.97;;
25609;SDS011;13479;49.044;8.716;2024-01-30T15:38:40;10.25;;;5.20;;
25609;SDS011;13479;49.044;8.716;2024-01-30T15:41:05;12.48;;;5.82;;
25609;SDS011;13479;49.044;8.716;2024-01-30T15:43:31;21.70;;;6.75;;
25609;SDS011;13479;49.044;8.716;2024-01-30T15:45:57;35.38;;;7.72;;
25609;SDS011;13479;49.044;8.716;2024-01-30T15:48:24;19.90;;;6.88;;
25609;SDS011;13479;49.044;8.716;2024-01-30T15:50:49;33.10;;;7.95;;
25609;SDS011;13479;49.044;8.716;2024-01-30T15:53:14;36.67;;;8.05;;
25609;SDS011;13479;49.044;8.716;2024-01-30T15:55:40;59.95;;;9.65;;
25609;SDS011;13479;49.044;8.716;2024-01-30T15:58:05;33.22;;;7.97;;
25609;SDS011;13479;49.044;8.716;2024-01-30T16:00:31;29.27;;;7.88;;
25609;SDS011;13479;49.044;8.716;2024-01-30T16:02:57;112.90;;;12.52;;
25609;SDS011;13479;49.044;8.716;2024-01-30T16:05:23;32.25;;;9.20;;
25609;SDS011;13479;49.044;8.716;2024-01-30T16:07:48;181.93;;;39.45;;
25609;SDS011;13479;49.044;8.716;2024-01-30T16:10:13;308.48;;;45.03;;
25609;SDS011;13479;49.044;8.716;2024-01-30T16:12:42;144.55;;;26.98;;
25609;SDS011;13479;49.044;8.716;2024-01-30T16:15:10;47.55;;;12.20;;
25609;SDS011;13479;49.044;8.716;2024-01-30T16:17:35;19.23;;;7.90;;
25609;SDS011;13479;49.044;8.716;2024-01-30T16:20:01;25.35;;;7.32;;
25609;SDS011;13479;49.044;8.716;2024-01-30T16:22:26;17.33;;;6.60;;
25609;SDS011;13479;49.044;8.716;2024-01-30T16:24:52;13.48;;;6.38;;
25609;SDS011;13479;49.044;8.716;2024-01-30T16:27:17;11.05;;;5.75;;
25609;SDS011;13479;49.044;8.716;2024-01-30T16:29:42;14.60;;;5.72;;
25609;SDS011;13479;49.044;8.716;2024-01-30T16:32:08;16.70;;;6.07;;
25609;SDS011;13479;49.044;8.716;2024-01-30T16:34:33;13.80;;;5.70;;
25609;SDS011;13479;49.044;8.716;2024-01-30T16:36:58;12.93;;;5.85;;
25609;SDS011;13479;49.044;8.716;2024-01-30T16:39:23;14.13;;;5.88;;
25609;SDS011;13479;49.044;8.716;2024-01-30T16:41:49;10.77;;;5.80;;
25609;SDS011;13479;49.044;8.716;2024-01-30T16:44:14;13.10;;;5.72;;
25609;SDS011;13479;49.044;8.716;2024-01-30T16:46:39;10.77;;;6.18;;
25609;SDS011;13479;49.044;8.716;2024-01-30T16:49:05;13.75;;;5.78;;
25609;SDS011;13479;49.044;8.716;2024-01-30T16:51:30;17.70;;;5.97;;
25609;SDS011;13479;49.044;8.716;2024-01-30T16:53:56;9.73;;;5.40;;
25609;SDS011;13479;49.044;8.716;2024-01-30T16:56:21;13.20;;;6.30;;
25609;SDS011;13479;49.044;8.716;2024-01-30T16:58:46;12.48;;;6.10;;
25609;SDS011;13479;49.044;8.716;2024-01-30T17:01:12;11.43;;;6.60;;
25609;SDS011;13479;49.044;8.716;2024-01-30T17:03:37;11.02;;;5.78;;
25609;SDS011;13479;49.044;8.716;2024-01-30T17:06:06;11.20;;;6.20;;
25609;SDS011;13479;49.044;8.716;2024-01-30T17:08:35;11.05;;;5.55;;
25609;SDS011;13479;49.044;8.716;2024-01-30T17:11:00;13.88;;;6.25;;
25609;SDS011;13479;49.044;8.716;2024-01-30T17:13:25;9.55;;;5.30;;
25609;SDS011;13479;49.044;8.716;2024-01-30T17:15:50;9.85;;;5.40;;
25609;SDS011;13479;49.044;8.716;2024-01-30T17:18:16;12.00;;;5.65;;
25609;SDS011;13479;49.044;8.716;2024-01-30T17:20:43;11.77;;;5.85;;
25609;SDS011;13479;49.044;8.716;2024-01-30T17:23:08;10.20;;;5.43;;
25609;SDS011;13479;49.044;8.716;2024-01-30T17:25:35;13.55;;;5.93;;
25609;SDS011;13479;49.044;8.716;2024-01-30T17:28:01;12.45;;;6.18;;
25609;SDS011;13479;49.044;8.716;2024-01-30T17:30:26;13.95;;;6.13;;
25609;SDS011;13479;49.044;8.716;2024-01-30T17:32:53;13.70;;;5.97;;
25609;SDS011;13479;49.044;8.716;2024-01-30T17:35:18;15.95;;;7.35;;
25609;SDS011;13479;49.044;8.716;2024-01-30T17:37:43;17.40;;;6.70;;
25609;SDS011;13479;49.044;8.716;2024-01-30T17:40:09;16.15;;;7.03;;
25609;SDS011;13479;49.044;8.716;2024-01-30T17:42:35;11.95;;;6.57;;
25609;SDS011;13479;49.044;8.716;2024-01-30T17:45:03;14.43;;;6.97;;
25609;SDS011;13479;49.044;8.716;2024-01-30T17:47:29;14.32;;;6.50;;
25609;SDS011;13479;49.044;8.716;2024-01-30T17:49:54;16.45;;;6.28;;
25609;SDS011;13479;49.044;8.716;2024-01-30T17:52:19;13.82;;;6.55;;
25609;SDS011;13479;49.044;8.716;2024-01-30T17:54:45;16.77;;;6.90;;
25609;SDS011;13479;49.044;8.716;2024-01-30T17:57:10;15.18;;;7.25;;
25609;SDS011;13479;49.044;8.716;2024-01-30T17:59:36;14.55;;;6.70;;
25609;SDS011;13479;49.044;8.716;2024-01-30T18:02:01;18.27;;;7.28;;
25609;SDS011;13479;49.044;8.716;2024-01-30T18:04:27;12.18;;;7.00;;
25609;SDS011;13479;49.044;8.716;2024-01-30T18:06:52;14.10;;;7.28;;
25609;SDS011;13479;49.044;8.716;2024-01-30T18:09:20;19.15;;;8.63;;
25609;SDS011;13479;49.044;8.716;2024-01-30T18:11:50;14.27;;;7.13;;
25609;SDS011;13479;49.044;8.716;2024-01-30T18:14:15;17.23;;;8.55;;
25609;SDS011;13479;49.044;8.716;2024-01-30T18:16:41;14.80;;;7.68;;
25609;SDS011;13479;49.044;8.716;2024-01-30T18:19:06;16.67;;;7.22;;
25609;SDS011;13479;49.044;8.716;2024-01-30T18:21:32;15.15;;;7.35;;
25609;SDS011;13479;49.044;8.716;2024-01-30T18:23:57;14.43;;;7.88;;
25609;SDS011;13479;49.044;8.716;2024-01-30T18:26:22;14.48;;;7.22;;
25609;SDS011;13479;49.044;8.716;2024-01-30T18:28:49;12.63;;;6.28;;
25609;SDS011;13479;49.044;8.716;2024-01-30T18:31:14;13.43;;;6.80;;
25609;SDS011;13479;49.044;8.716;2024-01-30T18:33:41;12.60;;;7.30;;
25609;SDS011;13479;49.044;8.716;2024-01-30T18:36:06;16.83;;;8.02;;
25609;SDS011;13479;49.044;8.716;2024-01-30T18:38:32;11.00;;;6.63;;
25609;SDS011;13479;49.044;8.716;2024-01-30T18:40:57;11.38;;;6.57;;
25609;SDS011;13479;49.044;8.716;2024-01-30T18:43:23;12.25;;;6.53;;
25609;SDS011;13479;49.044;8.716;2024-01-30T18:45:51;13.02;;;6.53;;
25609;SDS011;13479;49.044;8.716;2024-01-30T18:48:21;11.82;;;6.40;;
25609;SDS011;13479;49.044;8.716;2024-01-30T18:50:46;11.80;;;6.63;;
25609;SDS011;13479;49.044;8.716;2024-01-30T18:53:12;14.82;;;7.22;;
25609;SDS011;13479;49.044;8.716;2024-01-30T18:55:37;13.00;;;6.95;;
25609;SDS011;13479;49.044;8.716;2024-01-30T18:58:03;11.68;;;7.13;;
25609;SDS011;13479;49.044;8.716;2024-01-30T19:00:30;12.10;;;6.90;;
25609;SDS011;13479;49.044;8.716;2024-01-30T19:02:56;13.80;;;6.88;;
25609;SDS011;13479;49.044;8.716;2024-01-30T19:05:22;15.13;;;7.10;;
25609;SDS011;13479;49.044;8.716;2024-01-30T19:07:47;13.43;;;6.47;;
25609;SDS011;13479;49.044;8.716;2024-01-30T19:10:14;12.40;;;7.60;;
25609;SDS011;13479;49.044;8.716;2024-01-30T19:12:40;17.30;;;8.00;;
25609;SDS011;13479;49.044;8.716;2024-01-30T19:15:07;18.60;;;8.55;;
25609;SDS011;13479;49.044;8.716;2024-01-30T19:17:34;17.58;;;9.63;;
25609;SDS011;13479;49.044;8.716;2024-01-30T19:20:00;25.98;;;12.85;;
25609;SDS011;13479;49.044;8.716;2024-01-30T19:22:26;26.73;;;13.13;;
25609;SDS011;13479;49.044;8.716;2024-01-30T19:24:51;49.15;;;24.55;;
25609;SDS011;13479;49.044;8.716;2024-01-30T19:27:16;37.78;;;20.73;;
25609;SDS011;13479;49.044;8.716;2024-01-30T19:29:42;32.55;;;16.23;;
25609;SDS011;13479;49.044;8.716;2024-01-30T19:32:07;20.50;;;8.75;;